KMOB

Mobile Regional Airport

Mobile, Alabama, USA
METAR KMOB 261256Z 08004KT 10SM FEW033 SCT060 BKN190 25/23 A2994 RMK AO2 SLP134 CB DSNT SW TCU DSNT E-SE T02500228
Observed Flight Rules
May-26 @ 12:56 UTC (35 minutes ago) Visual Flight Rules
Wind Visibility Clouds
80° at 4 knots 10 miles
  • Few at 3,300' AGL
  • Scattered at 6,000' AGL
  • Broken at 19,000' AGL
Temperatures Readings
Current 25°C / 77°F
Dewpoint 23°C / 73°F
Humidity 89%
Altimeter 29.94" Hg
Pressure 1013.4 hPa
Elevation 63
METAR KMOB 261256Z 08004KT 10SM FEW033 SCT060 BKN190 25/23 A2994 RMK AO2 SLP134 CB DSNT SW TCU DSNT E-SE T02500228
Observed Flight Rules
May-26 @ 12:56 UTC
(35 minutes ago)
VFR
Wind Visibility
80° at 4 knots 10 miles
Clouds
  • Few at 3,300' AGL
  • Scattered at 6,000' AGL
  • Broken at 19,000' AGL
Temperature Dewpoint
25°C / 77°F 23°C / 73°F
Humidity Altimeter Pressure
89% 29.94" Hg 1013.4 hPa